createdAt,value
2023-02-16T00:01:17.094Z,4.39
2023-02-16T00:03:46.667Z,4.28
2023-02-16T00:06:16.188Z,4.29
2023-02-16T00:08:46.720Z,4.10
2023-02-16T00:11:35.927Z,4.57
2023-02-16T00:14:05.119Z,4.76
2023-02-16T00:16:32.828Z,4.54
2023-02-16T00:19:02.063Z,5.10
2023-02-16T00:21:29.791Z,4.89
2023-02-16T00:23:57.499Z,4.62
2023-02-16T00:26:27.076Z,4.36
2023-02-16T00:28:58.452Z,4.67
2023-02-16T00:31:27.893Z,4.60
2023-02-16T00:33:56.033Z,4.42
2023-02-16T00:36:25.220Z,4.62
2023-02-16T00:38:53.206Z,4.05
2023-02-16T00:41:41.728Z,4.49
2023-02-16T00:44:15.986Z,3.90
2023-02-16T00:46:44.289Z,4.24
2023-02-16T00:49:15.511Z,4.06
2023-02-16T00:51:45.117Z,3.89
2023-02-16T00:54:13.272Z,4.66
2023-02-16T00:56:42.924Z,4.35
2023-02-16T00:59:16.917Z,4.24
2023-02-16T01:01:45.003Z,3.58
2023-02-16T01:04:20.360Z,4.48
2023-02-16T01:07:18.546Z,4.65
2023-02-16T01:10:03.804Z,4.52
2023-02-16T01:12:31.542Z,4.07
2023-02-16T01:14:59.243Z,4.64
2023-02-16T01:17:26.991Z,4.08
2023-02-16T01:19:55.204Z,3.42
2023-02-16T01:22:24.287Z,3.67
2023-02-16T01:24:52.016Z,3.99
2023-02-16T01:27:19.889Z,3.79
2023-02-16T01:29:47.616Z,3.95
2023-02-16T01:32:15.390Z,3.79
2023-02-16T01:34:43.158Z,4.17
2023-02-16T01:37:16.018Z,4.07
2023-02-16T01:39:45.569Z,3.97
2023-02-16T01:42:24.224Z,4.09
2023-02-16T01:44:53.871Z,4.35
2023-02-16T01:47:36.642Z,4.52
2023-02-16T01:50:17.213Z,4.02
2023-02-16T01:52:51.341Z,4.20
2023-02-16T01:55:25.116Z,4.02
2023-02-16T01:57:58.130Z,3.95
2023-02-16T02:00:31.129Z,3.91
2023-02-16T02:03:16.508Z,3.67
2023-02-16T02:05:44.548Z,3.79
2023-02-16T02:08:20.324Z,3.65
2023-02-16T02:11:00.707Z,4.10
2023-02-16T02:13:33.763Z,3.95
2023-02-16T02:16:02.627Z,4.08
2023-02-16T02:18:30.381Z,3.98
2023-02-16T02:21:34.771Z,3.63
2023-02-16T02:24:30.702Z,3.58
2023-02-16T02:27:15.336Z,3.77
2023-02-16T02:30:00.916Z,3.99
2023-02-16T02:32:39.904Z,4.12
2023-02-16T02:35:21.398Z,3.86
2023-02-16T02:37:54.506Z,3.86
2023-02-16T02:40:34.570Z,3.47
2023-02-16T02:43:09.338Z,3.46
2023-02-16T02:45:42.223Z,4.14
2023-02-16T02:48:09.938Z,3.80
2023-02-16T02:51:02.472Z,4.13
2023-02-16T02:53:30.968Z,3.70
2023-02-16T02:56:17.983Z,3.55
2023-02-16T02:59:07.754Z,3.77
2023-02-16T03:01:38.278Z,3.68
2023-02-16T03:04:09.501Z,3.74
2023-02-16T03:06:39.918Z,4.32
2023-02-16T03:09:12.109Z,4.59
2023-02-16T03:11:57.230Z,4.60
2023-02-16T03:14:31.819Z,4.73
2023-02-16T03:17:19.384Z,4.76
2023-02-16T03:20:08.006Z,4.70
2023-02-16T03:22:54.867Z,4.44
2023-02-16T03:25:41.222Z,4.78
2023-02-16T03:28:29.154Z,4.52
2023-02-16T03:31:01.602Z,4.69
2023-02-16T03:33:30.440Z,4.40
2023-02-16T03:35:59.241Z,4.19
2023-02-16T03:38:27.529Z,4.46
2023-02-16T03:40:55.650Z,4.69
2023-02-16T03:43:26.290Z,4.30
2023-02-16T03:45:54.056Z,4.27
2023-02-16T03:48:23.275Z,4.60
2023-02-16T03:50:50.997Z,4.17
2023-02-16T03:53:19.837Z,3.95
2023-02-16T03:55:49.207Z,3.96
2023-02-16T03:58:19.506Z,4.46
2023-02-16T04:00:47.313Z,4.15
2023-02-16T04:03:15.618Z,4.44
2023-02-16T04:05:45.605Z,4.45
2023-02-16T04:08:13.528Z,4.51
2023-02-16T04:10:41.493Z,4.22
2023-02-16T04:13:08.222Z,4.58
2023-02-16T04:15:36.359Z,3.86
2023-02-16T04:18:04.154Z,3.31
2023-02-16T04:20:34.071Z,3.52
2023-02-16T04:23:03.818Z,3.65
2023-02-16T04:25:31.727Z,3.30
2023-02-16T04:27:59.666Z,3.65
2023-02-16T04:30:30.086Z,3.46
2023-02-16T04:32:58.791Z,3.94
2023-02-16T04:35:26.564Z,3.82
2023-02-16T04:37:54.447Z,3.68
2023-02-16T04:40:23.902Z,4.18
2023-02-16T04:42:51.688Z,4.01
2023-02-16T04:45:19.507Z,4.73
2023-02-16T04:47:47.269Z,3.97
2023-02-16T04:50:15.019Z,4.44
2023-02-16T04:52:42.754Z,4.14
2023-02-16T04:55:10.828Z,4.06
2023-02-16T04:57:40.515Z,4.05
2023-02-16T05:00:11.659Z,4.38
2023-02-16T05:02:39.490Z,3.81
2023-02-16T05:05:08.026Z,4.03
2023-02-16T05:07:36.260Z,4.06
2023-02-16T05:10:04.078Z,4.74
2023-02-16T05:12:49.221Z,3.94
2023-02-16T05:15:18.465Z,4.42
2023-02-16T05:17:46.256Z,3.91
2023-02-16T05:20:14.599Z,4.15
2023-02-16T05:22:43.575Z,3.72
2023-02-16T05:25:11.331Z,3.84
2023-02-16T05:27:39.050Z,4.17
2023-02-16T05:30:08.747Z,4.36
2023-02-16T05:32:37.893Z,4.52
2023-02-16T05:35:06.610Z,4.59
2023-02-16T05:37:34.360Z,4.54
2023-02-16T05:40:02.376Z,4.54
2023-02-16T05:42:30.124Z,4.67
2023-02-16T05:44:57.861Z,4.67
2023-02-16T05:47:25.586Z,5.08
2023-02-16T05:49:54.659Z,4.37
2023-02-16T05:52:22.486Z,4.22
2023-02-16T05:54:50.234Z,4.93
2023-02-16T05:57:18.019Z,5.00
2023-02-16T05:59:45.748Z,4.72
2023-02-16T06:02:13.519Z,4.86
2023-02-16T06:04:41.279Z,4.67
2023-02-16T06:07:10.807Z,5.34
2023-02-16T06:09:39.366Z,5.33
2023-02-16T06:12:07.808Z,4.91
2023-02-16T06:14:35.521Z,5.12
2023-02-16T06:17:03.796Z,5.28
2023-02-16T06:19:32.432Z,4.52
2023-02-16T06:22:00.200Z,4.66
2023-02-16T06:24:29.753Z,4.81
2023-02-16T06:26:57.572Z,4.65
2023-02-16T06:29:25.520Z,4.56
2023-02-16T06:31:53.306Z,4.47
2023-02-16T06:34:21.132Z,4.65
2023-02-16T06:36:48.908Z,4.57
2023-02-16T06:39:16.670Z,4.85
2023-02-16T06:41:45.761Z,4.54
2023-02-16T06:44:15.305Z,4.53
2023-02-16T06:46:44.579Z,4.45
2023-02-16T06:49:14.063Z,4.34
2023-02-16T06:51:41.935Z,4.40
2023-02-16T06:54:09.799Z,4.49
2023-02-16T06:56:38.106Z,4.09
2023-02-16T06:59:07.719Z,4.56
2023-02-16T07:01:35.747Z,4.62
2023-02-16T07:04:03.615Z,4.76
2023-02-16T07:06:31.922Z,4.45
2023-02-16T07:09:00.710Z,4.54
2023-02-16T07:11:28.551Z,4.79
2023-02-16T07:13:56.462Z,4.29
2023-02-16T07:16:26.019Z,4.56
2023-02-16T07:18:53.803Z,4.97
2023-02-16T07:21:21.547Z,4.77
2023-02-16T07:23:49.308Z,5.10
2023-02-16T07:26:17.082Z,4.88
2023-02-16T07:28:44.817Z,5.19
2023-02-16T07:31:15.252Z,5.43
2023-02-16T07:33:45.167Z,4.73
2023-02-16T07:36:14.835Z,5.13
2023-02-16T07:38:42.934Z,5.04
2023-02-16T07:41:11.614Z,5.33
2023-02-16T07:43:42.706Z,5.25
2023-02-16T07:46:10.800Z,5.27
2023-02-16T07:48:38.562Z,5.65
2023-02-16T07:51:08.070Z,5.52
2023-02-16T07:53:36.048Z,5.59
2023-02-16T07:56:04.107Z,6.16
2023-02-16T07:58:31.851Z,6.10
2023-02-16T08:01:09.014Z,6.22
2023-02-16T08:03:36.797Z,7.03
2023-02-16T08:06:05.079Z,6.48
2023-02-16T08:08:34.572Z,7.04
2023-02-16T08:11:09.773Z,6.55
2023-02-16T08:13:37.514Z,6.25
2023-02-16T08:16:09.205Z,5.85
2023-02-16T08:18:37.030Z,6.88
2023-02-16T08:21:13.884Z,6.41
2023-02-16T08:23:47.661Z,6.56
2023-02-16T08:26:18.205Z,6.38
2023-02-16T08:28:47.092Z,6.89
2023-02-16T08:31:15.511Z,6.55
2023-02-16T08:33:43.969Z,8.18
2023-02-16T08:36:18.921Z,9.12
2023-02-16T08:38:50.154Z,6.91
2023-02-16T08:41:18.314Z,7.51
2023-02-16T08:43:46.237Z,7.74
2023-02-16T08:46:14.497Z,7.58
2023-02-16T08:48:45.187Z,8.32
2023-02-16T08:51:15.414Z,7.64
2023-02-16T08:53:43.151Z,8.12
2023-02-16T08:56:12.277Z,9.18
2023-02-16T08:58:40.214Z,8.31
2023-02-16T09:01:09.020Z,8.44
2023-02-16T09:03:38.449Z,9.31
2023-02-16T09:06:07.325Z,9.65
2023-02-16T09:08:37.535Z,9.71
2023-02-16T09:11:06.784Z,10.86
2023-02-16T09:13:37.885Z,11.23
2023-02-16T09:16:06.994Z,11.99
2023-02-16T09:18:36.837Z,11.87
2023-02-16T09:21:06.807Z,11.74
2023-02-16T09:23:35.726Z,10.99
2023-02-16T09:26:06.970Z,11.68
2023-02-16T09:28:36.590Z,12.20
2023-02-16T09:31:10.495Z,11.90
2023-02-16T09:33:38.588Z,12.19
2023-02-16T09:36:07.709Z,11.89
2023-02-16T09:38:35.829Z,12.12
2023-02-16T09:41:08.326Z,11.27
2023-02-16T09:43:46.684Z,12.22
2023-02-16T09:46:22.151Z,12.17
2023-02-16T09:48:51.303Z,11.45
2023-02-16T09:51:29.427Z,10.97
2023-02-16T09:54:12.200Z,10.78
2023-02-16T09:56:47.341Z,9.57
2023-02-16T09:59:30.156Z,10.85
2023-02-16T10:02:05.669Z,10.75
2023-02-16T10:04:44.215Z,10.97
2023-02-16T10:07:24.247Z,10.91
2023-02-16T10:09:55.769Z,10.98
2023-02-16T10:12:27.413Z,11.23
2023-02-16T10:15:00.490Z,10.76
2023-02-16T10:17:34.742Z,10.17
2023-02-16T10:20:09.263Z,10.76
2023-02-16T10:22:42.807Z,10.86
2023-02-16T10:25:14.864Z,10.68
2023-02-16T10:27:45.592Z,10.33
2023-02-16T10:30:18.782Z,9.91
2023-02-16T10:32:56.526Z,10.41
2023-02-16T10:35:31.473Z,10.33
2023-02-16T10:38:06.003Z,10.56
2023-02-16T10:40:48.343Z,10.34
2023-02-16T10:43:21.474Z,10.19
2023-02-16T10:45:54.141Z,10.35
2023-02-16T10:48:23.354Z,9.89
2023-02-16T10:50:58.982Z,9.87
2023-02-16T10:53:37.717Z,9.87
2023-02-16T10:56:28.299Z,10.12
2023-02-16T10:58:58.449Z,9.67
2023-02-16T11:01:37.115Z,9.60
2023-02-16T11:04:05.438Z,9.84
2023-02-16T11:06:36.393Z,9.76
2023-02-16T11:09:06.698Z,9.81
2023-02-16T11:11:38.256Z,9.83
2023-02-16T11:14:09.415Z,9.89
2023-02-16T11:16:38.737Z,10.22
2023-02-16T11:19:09.957Z,10.10
2023-02-16T11:21:47.363Z,9.99
2023-02-16T11:24:26.390Z,9.57
2023-02-16T11:27:03.218Z,9.25
2023-02-16T11:29:31.472Z,9.66
2023-02-16T11:32:06.299Z,10.18
2023-02-16T11:34:36.781Z,9.81
2023-02-16T11:37:09.145Z,9.98
2023-02-16T11:39:39.986Z,9.91
2023-02-16T11:42:10.490Z,10.08
2023-02-16T11:44:41.310Z,10.47
2023-02-16T11:47:24.391Z,10.87
2023-02-16T11:50:10.002Z,10.50
2023-02-16T11:52:37.999Z,10.64
2023-02-16T11:55:19.454Z,11.52
2023-02-16T11:57:47.216Z,11.16
2023-02-16T12:00:17.424Z,10.71
2023-02-16T12:03:07.981Z,10.81
2023-02-16T12:05:43.662Z,10.77
2023-02-16T12:08:38.391Z,10.57
2023-02-16T12:11:19.425Z,10.96
2023-02-16T12:13:55.557Z,10.23
2023-02-16T12:16:33.045Z,10.67
2023-02-16T12:19:14.485Z,10.69
2023-02-16T12:21:47.904Z,10.83
2023-02-16T12:24:28.652Z,10.71
2023-02-16T12:26:59.294Z,10.55
2023-02-16T12:29:41.473Z,10.81
2023-02-16T12:32:31.556Z,11.51
2023-02-16T12:35:13.810Z,11.26
2023-02-16T12:37:47.829Z,10.54
2023-02-16T12:40:23.655Z,10.29
2023-02-16T12:43:04.027Z,11.33
2023-02-16T12:45:36.600Z,10.98
2023-02-16T12:48:17.558Z,10.65
2023-02-16T12:50:49.872Z,11.90
2023-02-16T12:53:26.928Z,11.93
2023-02-16T12:55:59.380Z,11.49
2023-02-16T12:58:31.626Z,11.93
2023-02-16T13:01:04.075Z,11.40
2023-02-16T13:03:39.310Z,12.23
2023-02-16T13:06:19.505Z,12.17
2023-02-16T13:08:52.823Z,11.74
2023-02-16T13:11:24.606Z,12.48
2023-02-16T13:13:54.639Z,11.74
2023-02-16T13:16:30.598Z,11.61
2023-02-16T13:18:59.150Z,11.23
2023-02-16T13:21:54.264Z,11.42
2023-02-16T13:24:34.425Z,11.03
2023-02-16T13:27:16.975Z,10.81
2023-02-16T13:30:00.298Z,11.01
2023-02-16T13:32:44.836Z,11.24
2023-02-16T13:35:37.907Z,11.58
2023-02-16T13:38:25.152Z,11.04
2023-02-16T13:41:12.682Z,11.07
2023-02-16T13:43:45.058Z,11.86
2023-02-16T13:46:20.047Z,11.25
2023-02-16T13:48:50.168Z,11.02
2023-02-16T13:51:21.939Z,11.28
2023-02-16T13:53:56.982Z,11.45
2023-02-16T13:56:36.102Z,11.76
2023-02-16T13:59:57.703Z,11.56
2023-02-16T14:02:55.603Z,11.68
2023-02-16T14:05:27.544Z,11.28
2023-02-16T14:08:16.003Z,11.58
2023-02-16T14:11:19.102Z,11.00
2023-02-16T14:13:49.410Z,11.24
2023-02-16T14:16:31.643Z,11.13
2023-02-16T14:19:03.588Z,11.37
2023-02-16T14:21:39.767Z,11.26
2023-02-16T14:24:12.828Z,11.37
2023-02-16T14:26:55.424Z,10.96
2023-02-16T14:29:28.145Z,11.12
2023-02-16T14:32:02.594Z,11.58
2023-02-16T14:34:37.537Z,11.41
2023-02-16T14:37:34.845Z,11.13
2023-02-16T14:40:13.891Z,11.33
2023-02-16T14:42:59.261Z,11.16
2023-02-16T14:46:11.630Z,11.24
2023-02-16T14:49:15.214Z,11.47
2023-02-16T14:51:58.777Z,11.63
2023-02-16T14:54:49.758Z,11.19
2023-02-16T14:57:22.838Z,10.89
2023-02-16T14:59:57.251Z,11.37
2023-02-16T15:02:30.570Z,11.37
2023-02-16T15:04:59.231Z,11.45
2023-02-16T15:07:29.217Z,11.63
2023-02-16T15:09:59.641Z,11.90
2023-02-16T15:12:32.793Z,12.11
2023-02-16T15:15:03.926Z,11.80
2023-02-16T15:17:35.627Z,11.50
2023-02-16T15:20:10.651Z,11.33
2023-02-16T15:22:44.284Z,11.91
2023-02-16T15:25:25.642Z,12.41
2023-02-16T15:27:54.964Z,12.28
2023-02-16T15:30:25.888Z,12.60
2023-02-16T15:32:56.073Z,12.46
2023-02-16T15:35:27.698Z,12.11
2023-02-16T15:38:08.242Z,12.40
2023-02-16T15:40:36.431Z,12.38
2023-02-16T15:43:19.951Z,12.16
2023-02-16T15:45:52.884Z,12.29
2023-02-16T15:48:27.820Z,12.21
2023-02-16T15:50:58.406Z,11.97
2023-02-16T15:53:37.253Z,11.86
2023-02-16T15:56:17.209Z,12.07
2023-02-16T15:58:45.339Z,11.09
2023-02-16T16:01:31.656Z,11.60
2023-02-16T16:04:02.375Z,11.84
2023-02-16T16:06:35.982Z,11.80
2023-02-16T16:09:06.136Z,11.36
2023-02-16T16:11:34.805Z,11.84
2023-02-16T16:14:04.587Z,11.98
2023-02-16T16:16:34.981Z,11.97
2023-02-16T16:19:09.210Z,11.50
2023-02-16T16:21:48.348Z,12.13
2023-02-16T16:24:32.621Z,12.38
2023-02-16T16:27:02.976Z,11.99
2023-02-16T16:29:34.006Z,12.14
2023-02-16T16:32:03.927Z,12.45
2023-02-16T16:34:41.917Z,12.35
2023-02-16T16:37:23.551Z,12.24
2023-02-16T16:40:03.879Z,11.71
2023-02-16T16:42:33.608Z,11.29
2023-02-16T16:45:06.993Z,11.09
2023-02-16T16:47:39.733Z,10.87
2023-02-16T16:50:24.177Z,11.04
2023-02-16T16:52:55.089Z,11.26
2023-02-16T16:55:33.092Z,11.21
2023-02-16T16:58:03.427Z,11.38
2023-02-16T17:00:34.937Z,11.50
2023-02-16T17:03:06.443Z,11.91
2023-02-16T17:05:34.391Z,11.83
2023-02-16T17:08:02.348Z,12.11
2023-02-16T17:10:32.923Z,12.19
2023-02-16T17:13:01.211Z,10.94
2023-02-16T17:15:44.871Z,11.58
2023-02-16T17:18:18.280Z,11.37
2023-02-16T17:20:46.515Z,11.03
2023-02-16T17:23:16.293Z,10.99
2023-02-16T17:25:44.719Z,11.33
2023-02-16T17:28:14.150Z,10.85
2023-02-16T17:30:42.280Z,11.18
2023-02-16T17:33:11.211Z,10.89
2023-02-16T17:35:42.664Z,10.56
2023-02-16T17:38:12.259Z,11.15
2023-02-16T17:40:41.337Z,11.10
2023-02-16T17:43:13.768Z,10.74
2023-02-16T17:45:42.033Z,11.10
2023-02-16T17:48:16.166Z,10.71
2023-02-16T17:50:45.569Z,10.97
2023-02-16T17:53:14.636Z,11.45
2023-02-16T17:55:42.659Z,10.81
2023-02-16T17:58:11.934Z,10.81
2023-02-16T18:00:40.710Z,10.93
2023-02-16T18:03:12.261Z,10.82
2023-02-16T18:05:40.205Z,10.69
2023-02-16T18:08:09.339Z,10.70
2023-02-16T18:10:46.365Z,11.02
2023-02-16T18:13:14.960Z,11.30
2023-02-16T18:15:47.601Z,11.23
2023-02-16T18:18:16.786Z,11.31
2023-02-16T18:20:47.826Z,11.64
2023-02-16T18:23:19.609Z,11.15
2023-02-16T18:25:48.659Z,11.38
2023-02-16T18:28:22.259Z,11.36
2023-02-16T18:30:50.817Z,10.93
2023-02-16T18:33:18.610Z,10.97
2023-02-16T18:35:47.520Z,10.91
2023-02-16T18:38:17.054Z,11.06
2023-02-16T18:40:48.095Z,11.13
2023-02-16T18:43:15.950Z,11.08
2023-02-16T18:45:44.960Z,11.29
2023-02-16T18:48:12.753Z,11.73
2023-02-16T18:50:40.691Z,11.39
2023-02-16T18:53:08.504Z,10.95
2023-02-16T18:55:37.603Z,10.89
2023-02-16T18:58:09.126Z,10.85
2023-02-16T19:00:37.093Z,10.93
2023-02-16T19:03:05.398Z,10.97
2023-02-16T19:05:33.614Z,10.71
2023-02-16T19:08:01.429Z,10.58
2023-02-16T19:10:29.997Z,11.15
2023-02-16T19:13:01.110Z,11.01
2023-02-16T19:15:29.023Z,10.96
2023-02-16T19:17:56.809Z,10.73
2023-02-16T19:20:25.531Z,11.25
2023-02-16T19:22:53.295Z,10.93
2023-02-16T19:25:21.264Z,11.08
2023-02-16T19:27:49.259Z,10.65
2023-02-16T19:30:21.607Z,10.82
2023-02-16T19:32:49.705Z,10.85
2023-02-16T19:35:17.838Z,10.82
2023-02-16T19:37:45.705Z,10.83
2023-02-16T19:40:14.223Z,11.46
2023-02-16T19:42:42.009Z,11.04
2023-02-16T19:45:10.353Z,10.37
2023-02-16T19:47:39.475Z,11.15
2023-02-16T19:50:08.344Z,11.08
2023-02-16T19:52:36.246Z,10.92
2023-02-16T19:55:03.981Z,10.68
2023-02-16T19:57:31.689Z,11.29
2023-02-16T19:59:59.452Z,11.12
2023-02-16T20:02:27.323Z,11.29
2023-02-16T20:04:56.474Z,11.62
2023-02-16T20:07:24.213Z,11.69
2023-02-16T20:09:51.902Z,11.37
2023-02-16T20:12:19.662Z,11.56
2023-02-16T20:14:47.396Z,11.89
2023-02-16T20:17:15.130Z,11.79
2023-02-16T20:19:42.898Z,11.78
2023-02-16T20:22:12.178Z,11.31
2023-02-16T20:24:39.900Z,11.39
2023-02-16T20:27:07.629Z,11.37
2023-02-16T20:29:35.448Z,11.74
2023-02-16T20:32:04.917Z,11.30
2023-02-16T20:34:33.505Z,11.56
2023-02-16T20:37:01.364Z,11.43
2023-02-16T20:39:30.511Z,11.33
2023-02-16T20:41:59.276Z,11.46
2023-02-16T20:44:27.677Z,11.12
2023-02-16T20:46:55.414Z,11.47
2023-02-16T20:49:23.376Z,11.05
2023-02-16T20:51:51.109Z,10.75
2023-02-16T20:54:18.923Z,11.24
2023-02-16T20:56:48.090Z,11.23
2023-02-16T20:59:15.823Z,10.99
2023-02-16T21:01:46.519Z,11.36
2023-02-16T21:04:17.129Z,11.42
2023-02-16T21:06:45.178Z,11.06
2023-02-16T21:09:13.194Z,11.26
2023-02-16T21:11:41.802Z,10.91
2023-02-16T21:14:12.738Z,11.35
2023-02-16T21:16:40.949Z,11.51
2023-02-16T21:19:21.192Z,10.98
2023-02-16T21:21:50.447Z,11.22
2023-02-16T21:24:18.333Z,10.87
2023-02-16T21:26:46.047Z,11.00
2023-02-16T21:29:18.484Z,11.04
2023-02-16T21:31:46.325Z,11.02
2023-02-16T21:34:14.169Z,11.14
2023-02-16T21:36:41.910Z,11.01
2023-02-16T21:39:09.765Z,11.38
2023-02-16T21:41:36.984Z,10.67
2023-02-16T21:44:07.648Z,10.69
2023-02-16T21:46:39.017Z,10.72
2023-02-16T21:49:07.316Z,10.70
2023-02-16T21:51:37.024Z,10.97
2023-02-16T21:54:07.289Z,11.28
2023-02-16T21:56:38.625Z,10.90
2023-02-16T21:59:08.584Z,11.01
2023-02-16T22:01:39.852Z,11.18
2023-02-16T22:04:07.721Z,10.92
2023-02-16T22:06:38.777Z,11.06
2023-02-16T22:09:09.017Z,10.94
2023-02-16T22:11:37.800Z,11.17
2023-02-16T22:14:05.972Z,11.31
2023-02-16T22:16:36.633Z,11.28
2023-02-16T22:19:08.710Z,11.87
2023-02-16T22:21:37.921Z,10.60
2023-02-16T22:24:06.731Z,10.94
2023-02-16T22:26:36.015Z,11.38
2023-02-16T22:29:05.673Z,11.17
2023-02-16T22:31:34.264Z,11.46
2023-02-16T22:34:06.108Z,11.26
2023-02-16T22:36:34.576Z,10.77
2023-02-16T22:39:02.323Z,11.00
2023-02-16T22:41:30.246Z,11.21
2023-02-16T22:43:59.204Z,11.07
2023-02-16T22:46:28.080Z,10.80
2023-02-16T22:48:58.363Z,11.39
2023-02-16T22:51:29.494Z,11.24
2023-02-16T22:53:58.964Z,11.43
2023-02-16T22:56:26.893Z,11.39
2023-02-16T22:58:57.500Z,11.95
2023-02-16T23:01:26.602Z,11.65
2023-02-16T23:03:57.501Z,11.12
2023-02-16T23:06:28.977Z,11.66
2023-02-16T23:08:58.689Z,11.33
2023-02-16T23:11:27.613Z,10.89
2023-02-16T23:13:55.703Z,11.19
2023-02-16T23:16:25.181Z,10.73
2023-02-16T23:18:53.204Z,10.99
2023-02-16T23:21:23.413Z,10.75
2023-02-16T23:23:54.408Z,10.75
2023-02-16T23:26:24.017Z,10.61
2023-02-16T23:28:53.128Z,11.22
2023-02-16T23:31:22.194Z,11.27
2023-02-16T23:33:50.219Z,10.57
2023-02-16T23:36:18.800Z,11.06
2023-02-16T23:38:46.566Z,10.71
2023-02-16T23:41:16.690Z,10.98
2023-02-16T23:43:44.473Z,11.33
2023-02-16T23:46:12.440Z,10.50
2023-02-16T23:48:40.194Z,11.29
2023-02-16T23:51:08.807Z,10.84
2023-02-16T23:53:37.768Z,10.85
2023-02-16T23:56:09.024Z,10.28
2023-02-16T23:58:41.404Z,10.34
